sensor_id;sensor_type;location;lat;lon;timestamp;temperature;humidity
7014;DHT22;3547;50.774;12.918;2022-07-10T00:05:35;13.10;99.90
7014;DHT22;3547;50.774;12.918;2022-07-10T00:08:04;13.00;99.90
7014;DHT22;3547;50.774;12.918;2022-07-10T00:10:31;12.90;99.90
7014;DHT22;3547;50.774;12.918;2022-07-10T00:12:59;12.90;99.90
7014;DHT22;3547;50.774;12.918;2022-07-10T00:15:25;12.90;99.90
7014;DHT22;3547;50.774;12.918;2022-07-10T00:17:51;12.80;99.90
7014;DHT22;3547;50.774;12.918;2022-07-10T00:20:18;12.70;99.90
7014;DHT22;3547;50.774;12.918;2022-07-10T00:22:44;12.80;99.90
7014;DHT22;3547;50.774;12.918;2022-07-10T00:25:12;12.80;99.90
7014;DHT22;3547;50.774;12.918;2022-07-10T00:27:47;12.80;99.90
7014;DHT22;3547;50.774;12.918;2022-07-10T00:30:13;12.80;99.90
7014;DHT22;3547;50.774;12.918;2022-07-10T00:32:40;12.90;99.90
7014;DHT22;3547;50.774;12.918;2022-07-10T00:35:07;12.80;99.90
7014;DHT22;3547;50.774;12.918;2022-07-10T00:37:33;12.80;99.90
7014;DHT22;3547;50.774;12.918;2022-07-10T00:40:00;12.80;99.90
7014;DHT22;3547;50.774;12.918;2022-07-10T00:42:26;12.70;99.90
7014;DHT22;3547;50.774;12.918;2022-07-10T00:44:53;12.70;99.90
7014;DHT22;3547;50.774;12.918;2022-07-10T00:47:19;12.60;99.90
7014;DHT22;3547;50.774;12.918;2022-07-10T00:49:46;12.70;99.90
7014;DHT22;3547;50.774;12.918;2022-07-10T00:52:16;12.70;99.90
7014;DHT22;3547;50.774;12.918;2022-07-10T00:54:47;12.80;99.90
7014;DHT22;3547;50.774;12.918;2022-07-10T00:57:17;12.70;99.90
7014;DHT22;3547;50.774;12.918;2022-07-10T01:19:57;12.30;99.90
7014;DHT22;3547;50.774;12.918;2022-07-10T01:22:23;12.30;99.90
7014;DHT22;3547;50.774;12.918;2022-07-10T01:24:52;12.20;99.90
7014;DHT22;3547;50.774;12.918;2022-07-10T01:30:43;12.30;99.90
7014;DHT22;3547;50.774;12.918;2022-07-10T01:36:41;12.10;99.90
7014;DHT22;3547;50.774;12.918;2022-07-10T04:09:34;11.70;99.90
7014;DHT22;3547;50.774;12.918;2022-07-10T04:12:00;11.70;99.90
7014;DHT22;3547;50.774;12.918;2022-07-10T04:14:27;11.70;99.90
7014;DHT22;3547;50.774;12.918;2022-07-10T04:16:53;11.70;99.90
7014;DHT22;3547;50.774;12.918;2022-07-10T04:19:19;11.60;99.90
7014;DHT22;3547;50.774;12.918;2022-07-10T04:21:47;11.70;99.90
7014;DHT22;3547;50.774;12.918;2022-07-10T04:50:56;11.80;99.90
7014;DHT22;3547;50.774;12.918;2022-07-10T04:58:35;11.80;99.90
7014;DHT22;3547;50.774;12.918;2022-07-10T05:01:20;11.70;99.90
7014;DHT22;3547;50.774;12.918;2022-07-10T05:03:46;11.80;99.90
7014;DHT22;3547;50.774;12.918;2022-07-10T05:14:03;11.60;99.90
7014;DHT22;3547;50.774;12.918;2022-07-10T05:19:05;11.50;99.90
7014;DHT22;3547;50.774;12.918;2022-07-10T05:21:32;11.50;99.90
7014;DHT22;3547;50.774;12.918;2022-07-10T05:29:31;11.80;99.90
7014;DHT22;3547;50.774;12.918;2022-07-10T05:31:58;11.90;99.90
7014;DHT22;3547;50.774;12.918;2022-07-10T05:34:24;11.90;99.90
7014;DHT22;3547;50.774;12.918;2022-07-10T05:36:53;12.00;99.90
7014;DHT22;3547;50.774;12.918;2022-07-10T05:39:19;11.90;99.90
7014;DHT22;3547;50.774;12.918;2022-07-10T05:41:45;11.80;99.90
7014;DHT22;3547;50.774;12.918;2022-07-10T05:44:11;11.90;99.90
7014;DHT22;3547;50.774;12.918;2022-07-10T05:46:38;12.00;99.90
7014;DHT22;3547;50.774;12.918;2022-07-10T05:49:05;12.20;99.90
7014;DHT22;3547;50.774;12.918;2022-07-10T05:51:31;12.10;99.90
7014;DHT22;3547;50.774;12.918;2022-07-10T05:53:57;12.20;99.90
7014;DHT22;3547;50.774;12.918;2022-07-10T05:56:23;12.30;99.90
7014;DHT22;3547;50.774;12.918;2022-07-10T05:58:50;12.30;99.90
7014;DHT22;3547;50.774;12.918;2022-07-10T06:47:17;11.50;99.90
7014;DHT22;3547;50.774;12.918;2022-07-10T06:55:14;11.90;99.90
7014;DHT22;3547;50.774;12.918;2022-07-10T07:26:18;12.10;99.90
7014;DHT22;3547;50.774;12.918;2022-07-10T07:28:49;12.40;99.90
7014;DHT22;3547;50.774;12.918;2022-07-10T07:36:45;12.40;99.90
7014;DHT22;3547;50.774;12.918;2022-07-10T09:39:01;13.10;99.90
7014;DHT22;3547;50.774;12.918;2022-07-10T09:41:29;13.40;99.90
7014;DHT22;3547;50.774;12.918;2022-07-10T09:44:08;13.30;99.90
7014;DHT22;3547;50.774;12.918;2022-07-10T09:59:37;13.50;99.90
7014;DHT22;3547;50.774;12.918;2022-07-10T10:25:37;13.40;99.90
7014;DHT22;3547;50.774;12.918;2022-07-10T11:16:34;13.90;99.90
7014;DHT22;3547;50.774;12.918;2022-07-10T11:21:46;14.10;99.90
7014;DHT22;3547;50.774;12.918;2022-07-10T12:22:52;15.50;99.90
7014;DHT22;3547;50.774;12.918;2022-07-10T14:05:06;17.30;99.90
7014;DHT22;3547;50.774;12.918;2022-07-10T14:19:07;17.40;99.90
7014;DHT22;3547;50.774;12.918;2022-07-10T14:48:40;16.70;99.90
7014;DHT22;3547;50.774;12.918;2022-07-10T14:56:41;17.90;99.90
7014;DHT22;3547;50.774;12.918;2022-07-10T15:02:06;18.60;99.90
7014;DHT22;3547;50.774;12.918;2022-07-10T15:04:38;19.70;99.90
7014;DHT22;3547;50.774;12.918;2022-07-10T15:07:43;20.70;99.90
7014;DHT22;3547;50.774;12.918;2022-07-10T15:21:38;17.90;99.90
7014;DHT22;3547;50.774;12.918;2022-07-10T15:24:05;17.60;99.90
7014;DHT22;3547;50.774;12.918;2022-07-10T15:37:42;17.80;99.90
7014;DHT22;3547;50.774;12.918;2022-07-10T15:45:36;17.60;99.90
7014;DHT22;3547;50.774;12.918;2022-07-10T15:48:14;17.80;99.90
7014;DHT22;3547;50.774;12.918;2022-07-10T15:54:22;17.60;99.90
7014;DHT22;3547;50.774;12.918;2022-07-10T16:01:57;18.70;99.90
7014;DHT22;3547;50.774;12.918;2022-07-10T16:04:28;18.30;99.90
7014;DHT22;3547;50.774;12.918;2022-07-10T16:06:54;18.10;99.90
7014;DHT22;3547;50.774;12.918;2022-07-10T16:09:21;17.80;99.90
7014;DHT22;3547;50.774;12.918;2022-07-10T16:12:15;17.80;99.90
7014;DHT22;3547;50.774;12.918;2022-07-10T16:15:11;17.70;99.90
7014;DHT22;3547;50.774;12.918;2022-07-10T16:17:57;18.10;99.90
7014;DHT22;3547;50.774;12.918;2022-07-10T16:32:28;18.10;99.90
7014;DHT22;3547;50.774;12.918;2022-07-10T16:34:55;18.00;99.90
7014;DHT22;3547;50.774;12.918;2022-07-10T16:40:02;17.70;99.90
7014;DHT22;3547;50.774;12.918;2022-07-10T16:43:13;17.50;99.90
7014;DHT22;3547;50.774;12.918;2022-07-10T16:45:44;17.20;99.90
7014;DHT22;3547;50.774;12.918;2022-07-10T16:48:14;17.20;99.90
7014;DHT22;3547;50.774;12.918;2022-07-10T16:51:00;17.10;99.90
7014;DHT22;3547;50.774;12.918;2022-07-10T16:53:28;17.30;99.90
7014;DHT22;3547;50.774;12.918;2022-07-10T16:56:04;17.30;99.90
7014;DHT22;3547;50.774;12.918;2022-07-10T17:04:31;17.20;99.90
7014;DHT22;3547;50.774;12.918;2022-07-10T17:07:05;17.20;99.90
7014;DHT22;3547;50.774;12.918;2022-07-10T17:09:35;17.30;99.90
7014;DHT22;3547;50.774;12.918;2022-07-10T17:12:03;17.40;99.90
7014;DHT22;3547;50.774;12.918;2022-07-10T17:14:35;17.30;99.90
7014;DHT22;3547;50.774;12.918;2022-07-10T17:17:06;17.10;99.90
7014;DHT22;3547;50.774;12.918;2022-07-10T17:22:59;17.00;99.90
7014;DHT22;3547;50.774;12.918;2022-07-10T17:25:27;17.00;99.90
7014;DHT22;3547;50.774;12.918;2022-07-10T17:27:53;17.00;99.90
7014;DHT22;3547;50.774;12.918;2022-07-10T17:30:19;17.00;99.90
7014;DHT22;3547;50.774;12.918;2022-07-10T17:32:46;17.00;99.90
7014;DHT22;3547;50.774;12.918;2022-07-10T17:35:13;17.00;99.90
7014;DHT22;3547;50.774;12.918;2022-07-10T17:41:01;19.40;99.90
7014;DHT22;3547;50.774;12.918;2022-07-10T17:43:30;18.90;99.90
7014;DHT22;3547;50.774;12.918;2022-07-10T17:45:56;18.60;99.90
7014;DHT22;3547;50.774;12.918;2022-07-10T17:48:22;18.20;99.90
7014;DHT22;3547;50.774;12.918;2022-07-10T17:50:52;17.90;99.90
7014;DHT22;3547;50.774;12.918;2022-07-10T17:53:18;17.60;99.90
7014;DHT22;3547;50.774;12.918;2022-07-10T17:58:20;17.30;99.90
7014;DHT22;3547;50.774;12.918;2022-07-10T18:00:47;17.30;99.90
7014;DHT22;3547;50.774;12.918;2022-07-10T18:21:24;16.90;99.90
7014;DHT22;3547;50.774;12.918;2022-07-10T18:23:51;16.90;99.90
7014;DHT22;3547;50.774;12.918;2022-07-10T18:26:29;16.90;99.90
7014;DHT22;3547;50.774;12.918;2022-07-10T18:31:31;16.80;99.90
7014;DHT22;3547;50.774;12.918;2022-07-10T18:33:57;16.70;99.90
7014;DHT22;3547;50.774;12.918;2022-07-10T18:36:42;16.60;99.90
7014;DHT22;3547;50.774;12.918;2022-07-10T18:39:08;16.60;99.90
7014;DHT22;3547;50.774;12.918;2022-07-10T18:41:38;16.50;99.90
7014;DHT22;3547;50.774;12.918;2022-07-10T18:44:05;16.40;99.90
7014;DHT22;3547;50.774;12.918;2022-07-10T18:52:04;16.30;99.90
7014;DHT22;3547;50.774;12.918;2022-07-10T18:54:30;16.20;99.90
7014;DHT22;3547;50.774;12.918;2022-07-10T18:56:56;16.20;99.90
7014;DHT22;3547;50.774;12.918;2022-07-10T18:59:23;16.10;99.90
7014;DHT22;3547;50.774;12.918;2022-07-10T19:01:49;16.00;99.90
7014;DHT22;3547;50.774;12.918;2022-07-10T19:04:15;16.00;99.90
7014;DHT22;3547;50.774;12.918;2022-07-10T19:06:42;15.90;99.90
7014;DHT22;3547;50.774;12.918;2022-07-10T19:09:08;16.00;99.90
7014;DHT22;3547;50.774;12.918;2022-07-10T19:11:34;15.90;99.90
7014;DHT22;3547;50.774;12.918;2022-07-10T19:14:01;15.90;99.90
7014;DHT22;3547;50.774;12.918;2022-07-10T19:19:08;15.80;99.90
7014;DHT22;3547;50.774;12.918;2022-07-10T19:26:45;15.60;99.90
7014;DHT22;3547;50.774;12.918;2022-07-10T19:29:11;15.50;99.90
7014;DHT22;3547;50.774;12.918;2022-07-10T19:31:37;15.40;99.90
7014;DHT22;3547;50.774;12.918;2022-07-10T19:34:03;15.40;99.90
7014;DHT22;3547;50.774;12.918;2022-07-10T19:36:29;15.30;99.90
7014;DHT22;3547;50.774;12.918;2022-07-10T19:38:56;15.30;99.90
7014;DHT22;3547;50.774;12.918;2022-07-10T19:44:09;15.20;99.90
7014;DHT22;3547;50.774;12.918;2022-07-10T19:46:36;15.20;99.90
7014;DHT22;3547;50.774;12.918;2022-07-10T19:49:02;15.10;99.90
7014;DHT22;3547;50.774;12.918;2022-07-10T19:51:28;15.10;99.90
7014;DHT22;3547;50.774;12.918;2022-07-10T19:53:57;15.00;99.90
7014;DHT22;3547;50.774;12.918;2022-07-10T19:56:23;15.10;99.90
7014;DHT22;3547;50.774;12.918;2022-07-10T19:58:50;15.00;99.90
7014;DHT22;3547;50.774;12.918;2022-07-10T20:01:16;15.00;99.90
7014;DHT22;3547;50.774;12.918;2022-07-10T20:03:42;15.00;99.90
7014;DHT22;3547;50.774;12.918;2022-07-10T20:06:08;15.10;99.90
7014;DHT22;3547;50.774;12.918;2022-07-10T20:08:35;14.90;99.90
7014;DHT22;3547;50.774;12.918;2022-07-10T20:11:01;14.90;99.90
7014;DHT22;3547;50.774;12.918;2022-07-10T20:13:27;14.80;99.90
7014;DHT22;3547;50.774;12.918;2022-07-10T20:15:54;14.80;99.90
7014;DHT22;3547;50.774;12.918;2022-07-10T20:18:23;14.80;99.90
7014;DHT22;3547;50.774;12.918;2022-07-10T20:23:44;14.60;99.90
7014;DHT22;3547;50.774;12.918;2022-07-10T20:26:10;14.50;99.90
7014;DHT22;3547;50.774;12.918;2022-07-10T20:28:37;14.50;99.90
7014;DHT22;3547;50.774;12.918;2022-07-10T20:31:04;14.50;99.90
7014;DHT22;3547;50.774;12.918;2022-07-10T20:33:30;14.50;99.90
7014;DHT22;3547;50.774;12.918;2022-07-10T20:35:57;14.50;99.90
7014;DHT22;3547;50.774;12.918;2022-07-10T20:38:42;14.50;99.90
7014;DHT22;3547;50.774;12.918;2022-07-10T20:41:09;14.40;99.90
7014;DHT22;3547;50.774;12.918;2022-07-10T20:43:35;14.40;99.90
7014;DHT22;3547;50.774;12.918;2022-07-10T20:46:02;14.30;99.90
7014;DHT22;3547;50.774;12.918;2022-07-10T20:48:32;14.30;99.90
7014;DHT22;3547;50.774;12.918;2022-07-10T20:50:58;14.20;99.90
7014;DHT22;3547;50.774;12.918;2022-07-10T21:01:15;13.90;99.90
7014;DHT22;3547;50.774;12.918;2022-07-10T21:03:42;13.90;99.90
7014;DHT22;3547;50.774;12.918;2022-07-10T21:06:08;13.80;99.90
7014;DHT22;3547;50.774;12.918;2022-07-10T21:08:34;13.80;99.90
7014;DHT22;3547;50.774;12.918;2022-07-10T21:11:00;13.80;99.90
7014;DHT22;3547;50.774;12.918;2022-07-10T21:18:38;13.70;99.90
7014;DHT22;3547;50.774;12.918;2022-07-10T21:21:04;13.70;99.90
7014;DHT22;3547;50.774;12.918;2022-07-10T21:23:30;13.60;99.90
7014;DHT22;3547;50.774;12.918;2022-07-10T21:25:59;13.60;99.90
7014;DHT22;3547;50.774;12.918;2022-07-10T21:28:29;13.70;99.90
7014;DHT22;3547;50.774;12.918;2022-07-10T21:30:55;13.60;99.90
7014;DHT22;3547;50.774;12.918;2022-07-10T21:33:21;13.60;99.90
7014;DHT22;3547;50.774;12.918;2022-07-10T21:35:55;13.60;99.90
7014;DHT22;3547;50.774;12.918;2022-07-10T21:38:21;13.60;99.90
7014;DHT22;3547;50.774;12.918;2022-07-10T22:23:59;13.10;99.90
7014;DHT22;3547;50.774;12.918;2022-07-10T22:29:01;13.10;99.90
7014;DHT22;3547;50.774;12.918;2022-07-10T22:31:28;13.10;99.90
7014;DHT22;3547;50.774;12.918;2022-07-10T22:34:12;13.00;99.90
7014;DHT22;3547;50.774;12.918;2022-07-10T22:36:38;13.00;99.90
7014;DHT22;3547;50.774;12.918;2022-07-10T22:39:05;13.00;99.90
7014;DHT22;3547;50.774;12.918;2022-07-10T22:44:07;13.10;99.90
7014;DHT22;3547;50.774;12.918;2022-07-10T22:46:34;13.00;99.90
7014;DHT22;3547;50.774;12.918;2022-07-10T22:49:00;13.10;99.90
7014;DHT22;3547;50.774;12.918;2022-07-10T22:51:26;13.10;99.90
7014;DHT22;3547;50.774;12.918;2022-07-10T22:53:53;13.10;99.90
7014;DHT22;3547;50.774;12.918;2022-07-10T22:56:19;13.10;99.90
7014;DHT22;3547;50.774;12.918;2022-07-10T22:58:45;13.10;99.90
7014;DHT22;3547;50.774;12.918;2022-07-10T23:01:17;13.10;99.90
7014;DHT22;3547;50.774;12.918;2022-07-10T23:03:44;13.00;99.90
7014;DHT22;3547;50.774;12.918;2022-07-10T23:06:10;13.10;99.90
7014;DHT22;3547;50.774;12.918;2022-07-10T23:08:36;13.10;99.90
7014;DHT22;3547;50.774;12.918;2022-07-10T23:11:02;13.10;99.90
7014;DHT22;3547;50.774;12.918;2022-07-10T23:13:29;13.10;99.90
7014;DHT22;3547;50.774;12.918;2022-07-10T23:15:56;13.10;99.90
7014;DHT22;3547;50.774;12.918;2022-07-10T23:18:22;13.10;99.90
7014;DHT22;3547;50.774;12.918;2022-07-10T23:20:48;13.20;99.90
7014;DHT22;3547;50.774;12.918;2022-07-10T23:25:50;13.20;99.90
7014;DHT22;3547;50.774;12.918;2022-07-10T23:28:16;13.20;99.90
7014;DHT22;3547;50.774;12.918;2022-07-10T23:38:43;13.10;99.90
7014;DHT22;3547;50.774;12.918;2022-07-10T23:41:09;13.20;99.90
7014;DHT22;3547;50.774;12.918;2022-07-10T23:43:36;13.30;99.90
7014;DHT22;3547;50.774;12.918;2022-07-10T23:46:03;13.30;99.90
7014;DHT22;3547;50.774;12.918;2022-07-10T23:48:29;13.30;99.90
7014;DHT22;3547;50.774;12.918;2022-07-10T23:51:14;13.20;99.90
7014;DHT22;3547;50.774;12.918;2022-07-10T23:53:40;13.20;99.90
7014;DHT22;3547;50.774;12.918;2022-07-10T23:56:24;13.20;99.90
7014;DHT22;3547;50.774;12.918;2022-07-10T23:58:53;13.20;99.90
